Archival Weather

Aeroparque Jorge Newbery

Aeroparque Jorge Newbery, Argentina (SABE)

Report from: Saturday, May 14, 2022 8:00 AM -03
Current time: Sunday, June 26, 2022 3:01 PM -03

Current weather
Weather history
Weather forecast

Temperature15.0°C (59.0°F)
Dew point11.0°C (51.8°F)
Winds 1 kts (0.5 m/s, 1.2 mph) Vrb
Winds variableWinds variable
Visibility6.2 mi. (10 km)
Clouds Ceiling: Broken clouds 4,000 ft. (1,219 m)
Altimeter30.09 in.Hg (1019 mB)
Relative humidity77 %
Density altitude-9 ft. (-3 m)
Remarks Corrected report
No significant changes expected in the next two hours
Flight conditions Visual Meteorological Conditions
Raw dataCOR SABE 141100Z VRB01KT 9999 BKN040 15/11 Q1019 NOSIG
An error has occurred. This application may no longer respond until reloaded. Reload 🗙